Time,TemperatureF,DewpointF,PressureIn,WindDirection,WindDirectionDegrees,WindSpeedMPH,WindSpeedGustMPH,Humidity,HourlyPrecipIn,Conditions,Clouds,dailyrainin,SoftwareType,DateUTC
2013-05-17 00:00:00,60.9,50.7,29.94,East,101,0.0,0.0,69,0.00,,---,0.00,VWS V14.00,2013-05-17 04:00:00,
2013-05-17 00:30:00,60.1,51.1,29.95,East,101,0.0,0.0,72,0.00,,---,0.00,VWS V14.00,2013-05-17 04:30:00,
2013-05-17 01:00:00,59.1,51.5,29.95,East,100,0.0,0.0,76,0.00,,---,0.00,VWS V14.00,2013-05-17 05:00:00,
2013-05-17 01:30:00,58.1,52.0,29.95,East,101,0.0,0.0,80,0.00,,---,0.00,VWS V14.00,2013-05-17 05:30:00,
2013-05-17 02:00:00,58.0,51.9,29.94,East,101,0.0,0.0,80,0.00,,---,0.00,VWS V14.00,2013-05-17 06:00:00,
2013-05-17 02:30:00,57.5,52.1,29.94,East,101,0.0,0.0,82,0.00,,---,0.00,VWS V14.01,2013-05-17 06:30:00,
2013-05-17 03:00:00,57.0,51.9,29.95,ESE,102,0.0,0.0,83,0.00,,---,0.00,VWS V14.00,2013-05-17 07:00:00,
2013-05-17 03:30:00,56.2,51.1,29.95,East,101,0.0,0.0,83,0.00,,---,0.00,VWS V14.00,2013-05-17 07:30:00,
2013-05-17 04:00:00,56.8,51.4,29.95,ESE,103,1.0,2.0,82,0.00,,---,0.00,VWS V14.00,2013-05-17 08:00:00,
2013-05-17 04:30:00,58.3,50.8,29.95,ESE,105,1.0,3.0,76,0.00,,---,0.00,VWS V14.00,2013-05-17 08:30:00,
2013-05-17 05:00:00,60.3,49.7,29.97,ESE,109,1.0,4.0,68,0.00,,---,0.00,VWS V14.00,2013-05-17 09:00:00,
2013-05-17 05:30:00,59.7,49.9,29.98,SE,146,1.0,4.0,70,0.00,,---,0.00,VWS V14.00,2013-05-17 09:30:00,
2013-05-17 06:00:00,57.9,47.4,29.99,ESE,109,2.0,5.0,68,0.00,,---,0.00,VWS V14.00,2013-05-17 10:00:00,
2013-05-17 06:30:00,56.5,44.5,29.99,ESE,111,1.0,4.0,64,0.00,,---,0.00,VWS V14.00,2013-05-17 10:30:00,
2013-05-17 07:00:00,55.7,43.7,30.00,ESE,103,1.0,3.0,64,0.00,,---,0.00,VWS V14.00,2013-05-17 11:00:00,
2013-05-17 07:30:00,55.9,43.9,30.00,East,96,3.0,5.0,64,0.00,,---,0.00,VWS V14.00,2013-05-17 11:30:00,
2013-05-17 08:00:00,56.2,44.6,30.02,East,94,3.0,4.0,65,0.00,,---,0.00,VWS V14.00,2013-05-17 12:00:00,
2013-05-17 08:30:00,57.9,45.8,30.02,ESE,118,1.0,6.0,64,0.00,,---,0.00,VWS V14.00,2013-05-17 12:30:00,
2013-05-17 09:00:00,59.7,47.1,30.03,ESE,108,0.0,7.0,63,0.00,,---,0.00,VWS V14.00,2013-05-17 13:00:00,
2013-05-17 09:30:00,61.6,48.5,30.03,SSE,165,0.0,5.0,62,0.00,,---,0.00,VWS V14.00,2013-05-17 13:30:00,
2013-05-17 10:00:00,63.8,49.7,30.03,NE,43,4.0,4.0,60,0.00,,---,0.00,VWS V14.00,2013-05-17 14:00:00,
2013-05-17 10:30:00,66.2,51.0,30.03,SE,143,2.0,5.0,58,0.00,,---,0.00,VWS V14.00,2013-05-17 14:30:00,
2013-05-17 11:00:00,68.1,53.2,30.02,NE,37,3.0,4.0,59,0.00,,---,0.00,VWS V14.00,2013-05-17 15:00:00,
2013-05-17 11:30:00,70.7,53.8,30.02,SSE,150,0.0,5.0,55,0.00,,---,0.00,VWS V14.00,2013-05-17 15:30:00,
2013-05-17 12:00:00,72.0,55.0,30.02,SE,141,2.0,5.0,55,0.00,,---,0.00,VWS V14.00,2013-05-17 16:00:00,
2013-05-17 12:30:00,74.7,55.4,30.02,SSE,162,0.0,4.0,51,0.00,,---,0.00,VWS V14.00,2013-05-17 16:30:00,
2013-05-17 13:00:00,76.1,56.1,30.02,ESE,111,3.0,6.0,50,0.00,,---,0.00,VWS V14.00,2013-05-17 17:00:00,
2013-05-17 13:30:00,77.3,56.7,30.01,ESE,103,0.0,7.0,49,0.00,,---,0.00,VWS V14.00,2013-05-17 17:30:00,
2013-05-17 14:00:00,80.0,54.9,30.00,SE,136,1.0,6.0,42,0.00,,---,0.00,VWS V14.00,2013-05-17 18:00:00,
2013-05-17 14:30:00,79.0,56.5,30.00,SE,131,2.0,4.0,46,0.00,,---,0.00,VWS V14.00,2013-05-17 18:30:00,
2013-05-17 15:00:00,78.5,54.8,29.99,SSE,153,2.0,7.0,44,0.00,,---,0.00,VWS V14.00,2013-05-17 19:00:00,
2013-05-17 15:30:00,78.6,55.5,29.99,ESE,120,1.0,5.0,45,0.00,,---,0.00,VWS V14.00,2013-05-17 19:30:00,
2013-05-17 16:00:00,79.7,55.2,29.97,ESE,117,3.0,6.0,43,0.00,,---,0.00,VWS V14.00,2013-05-17 20:00:00,
2013-05-17 16:30:00,81.2,55.3,29.96,ESE,103,2.0,7.0,41,0.00,,---,0.00,VWS V14.00,2013-05-17 20:30:00,
2013-05-17 17:00:00,81.6,56.3,29.95,East,82,2.0,6.0,42,0.00,,---,0.00,VWS V14.00,2013-05-17 21:00:00,
2013-05-17 17:30:00,81.5,56.2,29.95,SSE,148,1.0,6.0,42,0.00,,---,0.00,VWS V14.00,2013-05-17 21:30:00,
2013-05-17 18:00:00,83.2,55.7,29.95,SSE,163,2.0,5.0,39,0.00,,---,0.00,VWS V14.00,2013-05-17 22:00:00,
2013-05-17 18:30:00,79.0,61.5,29.96,WSW,245,1.0,7.0,55,0.00,,---,0.00,VWS V14.00,2013-05-17 22:30:00,
2013-05-17 19:00:00,76.2,59.9,29.98,SE,128,1.0,4.0,57,0.00,,---,0.00,VWS V14.00,2013-05-17 23:00:00,
2013-05-17 19:30:00,72.6,62.7,30.01,South,186,1.0,12.0,71,0.00,,---,0.00,VWS V14.00,2013-05-17 23:30:00,
2013-05-17 20:00:00,70.4,62.1,30.01,SSE,147,1.0,5.0,75,0.00,,---,0.00,VWS V14.00,2013-05-18 00:00:00,
2013-05-17 20:30:00,69.0,62.6,30.03,SW,217,0.0,4.0,80,0.00,,---,0.00,VWS V14.00,2013-05-18 00:30:00,
2013-05-17 21:00:00,68.1,62.4,30.03,SE,134,0.0,3.0,82,0.00,,---,0.00,VWS V14.00,2013-05-18 01:00:00,
2013-05-17 21:30:00,67.0,62.3,30.04,SE,127,0.0,2.0,85,0.00,,---,0.00,VWS V14.00,2013-05-18 01:30:00,
2013-05-17 22:00:00,66.6,62.3,30.04,SE,143,0.0,0.0,86,0.00,,---,0.00,VWS V14.00,2013-05-18 02:00:00,
2013-05-17 22:30:00,65.9,61.6,30.04,SE,141,0.0,0.0,86,0.00,,---,0.00,VWS V14.00,2013-05-18 02:30:00,
2013-05-17 23:00:00,65.9,49.8,30.03,ESE,117,2.0,4.0,56,0.00,,---,0.00,VWS V14.00,2013-05-18 03:00:00,
2013-05-17 23:30:00,64.9,48.4,30.04,East,101,1.0,4.0,55,0.00,,---,0.00,VWS V14.00,2013-05-18 03:30:00,